KMRY Airport Information

Runway Information
Runway 10L Length 3513 ft width 60 ft
Elevation 198 ft Threshold 0 ft Heading 113
Runway 28R Length 3513 ft Width 60 ft
Elevation 256 ft Threshold 0 ft Heading 293
Runway 10R Length 7616 ft width 150 ft
Elevation 155 ft Threshold 0 ft Heading 113
Runway 28L Length 7616 ft Width 150 ft
Elevation 247 ft Threshold 1000 ft Heading 293
Airport Frequencies
Type A/D Name NORCAL APP Frequency 127.15 MHZ
Type ATIS Name ATIS Frequency 119.25 MHZ
Type CLD Name CLNC DEL Frequency 135.45 MHZ
Type CTAF Name CTAF Frequency 118.4 MHZ
Type GND Name GND Frequency 121.9 MHZ
Type TWR Name TWR Frequency 118.4 MHZ
Type UNIC Name UNICOM Frequency 122.95 MHZ
Airport Navaids
Type NDB Name Munso Frequency 385 KHZ
Airport Weather Information & NOTAM
ADDS - METARS form results

(1010 UTC 18 August 2018)
 
METAR text: KMRY 180954Z AUTO 00000KT 1/2SM FG VV001 13/13 A3006 RMK AO2 SLP189 T01330128 RVRNO
Conditions at: KMRY (MONTEREY , CA, US) observed 0954 UTC 18 August 2018
Temperature: 13.3°C (56°F)
Dewpoint: 12.8°C (55°F) [RH = 97%]
Pressure (altimeter): 30.06 inches Hg (1018.0 mb)
[Sea-level pressure: 1018.9 mb]
Winds: calm
Visibility: 0.50 miles (0.80 km)
Ceiling: indefinite ceiling with vertical visibility of 100 feet AGL
Clouds: obscured sky
Weather: FG  (fog)

METAR text: KMRY 180923Z AUTO 00000KT 1/2SM FG VV001 13/13 A3006 RMK AO2 T01330128 RVRNO
Conditions at: KMRY (MONTEREY , CA, US) observed 0923 UTC 18 August 2018
Temperature: 13.3°C (56°F)
Dewpoint: 12.8°C (55°F) [RH = 97%]
Pressure (altimeter): 30.06 inches Hg (1018.0 mb)
Winds: calm
Visibility: 0.50 miles (0.80 km)
Ceiling: indefinite ceiling with vertical visibility of 100 feet AGL
Clouds: obscured sky
Weather: FG  (fog)

METAR text: KMRY 180912Z AUTO 00000KT 1SM BR VV001 14/13 A3006 RMK AO2 T01390128 RVRNO
Conditions at: KMRY (MONTEREY , CA, US) observed 0912 UTC 18 August 2018
Temperature: 13.9°C (57°F)
Dewpoint: 12.8°C (55°F) [RH = 93%]
Pressure (altimeter): 30.06 inches Hg (1018.0 mb)
Winds: calm
Visibility: 1.00 miles (1.61 km)
Ceiling: indefinite ceiling with vertical visibility of 100 feet AGL
Clouds: obscured sky
Weather: BR  (mist)